Time;durP1;ratioP1;P1;durP2;ratioP2;P2;SDS_P1;SDS_P2;PMS_P1;PMS_P2;Temp;Humidity;BMP_temperature;BMP_pressure;BME280_temperature;BME280_humidity;BME280_pressure;Samples;Min_cycle;Max_cycle;Signal;HPM_P1;HPM_P2
2023/01/03 00:01:59;;;;;;;10.45;1.38;;;18.10;1.00;;;;;;5053899;28;20041;-35
2023/01/03 00:04:26;;;;;;;2.10;0.65;;;18.10;1.00;;;;;;5053666;28;20433;-35
2023/01/03 00:06:53;;;;;;;4.40;0.60;;;18.00;1.00;;;;;;5053875;28;20090;-32
2023/01/03 00:09:23;;;;;;;0.75;0.20;;;18.00;1.00;;;;;;5053853;28;20091;-37
2023/01/03 00:14:40;;;;;;;1.77;0.50;;;18.00;1.00;;;;;;5035703;28;20488;-35
2023/01/03 00:17:07;;;;;;;2.05;0.50;;;17.90;1.00;;;;;;5053712;28;20044;-35
2023/01/03 00:19:38;;;;;;;2.05;0.60;;;17.90;1.00;;;;;;5053650;28;20047;-32
2023/01/03 00:22:04;;;;;;;0.95;0.40;;;17.90;1.00;;;;;;5053556;28;20381;-33
2023/01/03 00:24:31;;;;;;;0.85;0.20;;;17.90;1.00;;;;;;5053774;28;20087;-33
2023/01/03 00:26:58;;;;;;;1.85;0.65;;;17.90;1.00;;;;;;5053530;28;20115;-35
2023/01/03 00:29:25;;;;;;;2.05;0.65;;;17.80;1.00;;;;;;5053421;28;20037;-33
2023/01/03 00:31:52;;;;;;;2.17;0.47;;;17.80;1.00;;;;;;5053237;28;20095;-39
2023/01/03 00:34:19;;;;;;;0.93;0.30;;;17.80;1.00;;;;;;5053160;28;20052;-36
2023/01/03 00:36:46;;;;;;;1.23;0.45;;;17.70;1.00;;;;;;5053260;28;20041;-34
2023/01/03 00:39:13;;;;;;;1.42;0.63;;;17.70;1.00;;;;;;5053223;28;20056;-34
2023/01/03 00:41:40;;;;;;;2.15;0.43;;;17.70;1.00;;;;;;5053052;28;20041;-34
2023/01/03 00:44:07;;;;;;;1.10;0.70;;;17.70;1.00;;;;;;5052938;28;20036;-33
2023/01/03 00:46:34;;;;;;;3.03;0.82;;;17.70;1.00;;;;;;5053481;28;20489;-32
2023/01/03 00:49:02;;;;;;;3.78;0.45;;;17.60;1.00;;;;;;5053214;28;20124;-32
2023/01/03 00:51:31;;;;;;;1.60;0.30;;;17.60;1.00;;;;;;5052989;28;20510;-35
2023/01/03 00:54:00;;;;;;;2.35;1.00;;;17.60;1.00;;;;;;5052555;28;20045;-33
2023/01/03 00:56:32;;;;;;;2.30;0.52;;;17.60;1.00;;;;;;5052633;28;20043;-37
2023/01/03 00:59:00;;;;;;;2.95;0.60;;;17.60;1.00;;;;;;5053015;28;20069;-38
2023/01/03 01:01:33;;;;;;;1.95;0.60;;;17.60;1.00;;;;;;5052732;28;20040;-32
2023/01/03 01:04:29;;;;;;;1.98;0.57;;;17.50;1.00;;;;;;5052514;28;20126;-34
2023/01/03 01:07:01;;;;;;;0.80;0.30;;;17.50;1.00;;;;;;5052721;28;20045;-38
2023/01/03 01:09:35;;;;;;;2.05;0.40;;;17.50;1.00;;;;;;5052846;28;20071;-34
2023/01/03 01:12:04;;;;;;;2.60;0.40;;;17.50;1.00;;;;;;5052507;28;20068;-36
2023/01/03 01:14:32;;;;;;;4.53;0.52;;;17.40;1.00;;;;;;5052361;28;20041;-34
2023/01/03 01:17:02;;;;;;;1.30;0.30;;;17.40;1.00;;;;;;5052521;28;20072;-37
2023/01/03 01:19:37;;;;;;;1.80;0.40;;;17.40;1.00;;;;;;5052584;28;20029;-35
2023/01/03 01:22:04;;;;;;;1.63;0.45;;;17.30;1.00;;;;;;5034398;28;20102;-38
2023/01/03 01:24:32;;;;;;;1.33;0.40;;;17.30;1.00;;;;;;5052263;28;20068;-32
2023/01/03 01:26:59;;;;;;;0.70;0.25;;;17.30;1.00;;;;;;5052236;28;20041;-33
2023/01/03 01:29:26;;;;;;;1.15;0.30;;;17.30;1.00;;;;;;5052314;28;20090;-33
2023/01/03 01:31:53;;;;;;;3.75;0.50;;;17.30;1.00;;;;;;5052152;28;20049;-35
2023/01/03 01:34:20;;;;;;;1.95;0.30;;;17.30;1.00;;;;;;5052039;28;20040;-39
2023/01/03 01:36:47;;;;;;;2.63;0.50;;;17.20;1.00;;;;;;5071168;22;20045;-35
2023/01/03 01:39:26;;;;;;;2.72;0.82;;;17.20;1.00;;;;;;5067682;28;20476;-35
2023/01/03 01:44:58;;;;;;;3.05;0.82;;;17.20;1.00;;;;;;5072079;28;20041;-36
2023/01/03 01:47:30;;;;;;;1.60;0.73;;;17.10;1.00;;;;;;5072076;28;20068;-36
2023/01/03 01:50:19;;;;;;;1.80;0.40;;;17.10;1.00;;;;;;5072048;28;20120;-36
2023/01/03 01:53:07;;;;;;;2.20;1.10;;;17.10;1.00;;;;;;5071717;28;20101;-35
2023/01/03 01:55:39;;;;;;;2.17;0.43;;;17.10;1.00;;;;;;5071826;28;20044;-36
2023/01/03 01:58:08;;;;;;;3.33;0.55;;;17.10;1.00;;;;;;5071850;28;20507;-36
2023/01/03 02:00:36;;;;;;;1.10;0.60;;;17.10;1.00;;;;;;5071837;28;20491;-35
2023/01/03 02:03:03;;;;;;;2.45;0.50;;;17.10;1.00;;;;;;5071588;28;20041;-36
2023/01/03 02:05:32;;;;;;;3.75;0.55;;;17.00;1.00;;;;;;5071767;28;20494;-36
2023/01/03 02:08:00;;;;;;;2.53;0.40;;;17.00;1.00;;;;;;5071153;28;20086;-36
2023/01/03 02:10:49;;;;;;;2.55;0.40;;;17.00;1.00;;;;;;5071717;28;20446;-36
2023/01/03 02:13:47;;;;;;;1.42;0.50;;;17.00;1.00;;;;;;5071708;28;20521;-36
2023/01/03 02:16:33;;;;;;;1.67;0.40;;;16.90;1.00;;;;;;5071716;28;20048;-36
2023/01/03 02:19:31;;;;;;;1.55;0.60;;;16.90;1.00;;;;;;5071527;28;20048;-35
2023/01/03 02:21:58;;;;;;;1.75;0.20;;;16.90;1.00;;;;;;5071587;28;20124;-35
2023/01/03 02:24:53;;;;;;;1.30;0.40;;;16.90;1.00;;;;;;5071416;28;20044;-36
2023/01/03 02:27:53;;;;;;;1.40;0.40;;;16.80;1.00;;;;;;5071421;28;20041;-35
2023/01/03 02:30:23;;;;;;;1.15;0.40;;;16.80;1.00;;;;;;5071669;28;20079;-35
2023/01/03 02:33:01;;;;;;;0.68;0.35;;;16.80;1.00;;;;;;5071412;28;20475;-35
2023/01/03 02:35:39;;;;;;;2.20;0.57;;;16.80;1.00;;;;;;5071684;28;20120;-36
2023/01/03 02:38:47;;;;;;;2.65;0.50;;;16.70;1.00;;;;;;5072155;28;20139;-36
2023/01/03 02:41:21;;;;;;;0.60;0.30;;;16.70;1.00;;;;;;5061221;28;20052;-36
2023/01/03 02:44:03;;;;;;;1.48;0.25;;;16.70;1.00;;;;;;5071311;28;20041;-35
2023/01/03 02:46:43;;;;;;;1.08;0.30;;;16.70;1.00;;;;;;5071460;28;20476;-35
2023/01/03 02:49:19;;;;;;;1.27;0.50;;;16.60;1.00;;;;;;5071533;28;20045;-34
2023/01/03 02:52:02;;;;;;;1.50;0.85;;;16.60;1.00;;;;;;5071405;28;20106;-35
2023/01/03 02:54:54;;;;;;;1.52;0.30;;;16.60;1.00;;;;;;5070988;28;20051;-35
2023/01/03 02:57:36;;;;;;;1.80;0.75;;;16.60;1.00;;;;;;5071336;28;20540;-35
2023/01/03 03:00:12;;;;;;;0.93;0.32;;;16.60;1.00;;;;;;5071255;28;20060;-35
2023/01/03 03:02:44;;;;;;;0.88;0.30;;;16.60;1.00;;;;;;5070972;28;20047;-35
2023/01/03 03:05:15;;;;;;;1.80;0.60;;;16.60;1.00;;;;;;5067134;28;20064;-36
2023/01/03 03:07:41;;;;;;;0.93;0.43;;;16.50;1.00;;;;;;5051305;28;20531;-35
2023/01/03 03:13:14;;;;;;;2.20;0.50;;;16.50;1.00;;;;;;5050735;28;20041;-35
2023/01/03 03:15:50;;;;;;;0.75;0.63;;;16.50;1.00;;;;;;5050169;28;20123;-35
2023/01/03 03:18:22;;;;;;;0.60;0.40;;;16.50;1.00;;;;;;5034490;28;20037;-35
2023/01/03 03:26:31;;;;;;;0.30;0.20;;;16.40;1.00;;;;;;5065254;28;20040;-35
2023/01/03 03:29:05;;;;;;;2.17;0.28;;;16.40;1.00;;;;;;5069302;28;20045;-36
2023/01/03 03:31:40;;;;;;;1.45;0.30;;;16.40;1.00;;;;;;5066659;28;20425;-36
2023/01/03 03:34:26;;;;;;;5.00;0.40;;;16.40;1.00;;;;;;5065821;28;20202;-36
2023/01/03 03:37:04;;;;;;;0.30;0.10;;;16.40;1.00;;;;;;5074406;28;20534;-36
2023/01/03 03:45:36;;;;;;;1.75;0.50;;;16.30;1.00;;;;;;5074315;28;20506;-35
2023/01/03 03:48:12;;;;;;;0.52;0.25;;;16.30;1.00;;;;;;5074427;28;20535;-35
2023/01/03 03:50:50;;;;;;;1.33;0.40;;;16.30;1.00;;;;;;5056400;28;20037;-35
2023/01/03 03:53:21;;;;;;;1.20;0.20;;;16.30;1.00;;;;;;5073865;28;20049;-36
2023/01/03 03:55:57;;;;;;;0.90;0.43;;;16.30;1.00;;;;;;5074062;28;20044;-35
2023/01/03 03:58:40;;;;;;;1.55;0.20;;;16.20;1.00;;;;;;5074224;28;20478;-36
2023/01/03 04:01:10;;;;;;;1.08;0.30;;;16.20;1.00;;;;;;5073897;28;20044;-36
2023/01/03 04:03:39;;;;;;;0.70;0.32;;;16.20;1.00;;;;;;5073661;28;20094;-36
2023/01/03 04:06:24;;;;;;;1.40;0.30;;;16.20;1.00;;;;;;5073852;28;20040;-35
2023/01/03 04:08:51;;;;;;;1.13;0.50;;;16.20;1.00;;;;;;5073982;28;20041;-35
2023/01/03 04:11:18;;;;;;;0.45;0.20;;;16.20;1.00;;;;;;5073795;28;20489;-35
2023/01/03 04:13:45;;;;;;;0.75;0.30;;;16.20;1.00;;;;;;5073533;28;20041;-35
2023/01/03 04:16:11;;;;;;;0.68;0.30;;;16.20;1.00;;;;;;5073594;28;20107;-35
2023/01/03 04:18:38;;;;;;;0.80;0.30;;;16.20;1.00;;;;;;5073774;28;20047;-35
2023/01/03 04:21:05;;;;;;;0.63;0.22;;;16.20;1.00;;;;;;5073584;28;20048;-35
2023/01/03 04:23:32;;;;;;;1.25;0.13;;;16.10;1.00;;;;;;5073384;28;20036;-35
2023/01/03 04:25:59;;;;;;;3.25;0.50;;;16.10;1.00;;;;;;5073446;28;20044;-36
2023/01/03 04:28:25;;;;;;;0.90;0.40;;;16.10;1.00;;;;;;5073441;28;20040;-37
2023/01/03 04:30:52;;;;;;;0.80;0.17;;;16.10;1.00;;;;;;5072579;28;20052;-37
2023/01/03 04:33:19;;;;;;;0.60;0.20;;;16.10;1.00;;;;;;5073217;28;20453;-37
2023/01/03 04:35:46;;;;;;;2.30;0.40;;;16.10;1.00;;;;;;5073155;28;20044;-37
2023/01/03 04:38:12;;;;;;;0.70;0.32;;;16.00;1.00;;;;;;5073246;28;20040;-37
2023/01/03 04:40:39;;;;;;;0.68;0.25;;;16.00;1.00;;;;;;5072980;28;20040;-37
2023/01/03 04:45:51;;;;;;;0.80;0.30;;;16.00;1.00;;;;;;5053055;28;20547;-37
2023/01/03 04:48:18;;;;;;;0.93;0.30;;;16.00;1.00;;;;;;5035542;28;20111;-36
2023/01/03 04:50:56;;;;;;;0.57;0.28;;;16.00;1.00;;;;;;5053084;28;20045;-36
2023/01/03 04:53:24;;;;;;;1.40;0.68;;;16.00;1.00;;;;;;5052700;28;20049;-36
2023/01/03 04:55:52;;;;;;;0.65;0.20;;;16.00;1.00;;;;;;5052926;28;20079;-37
2023/01/03 04:58:19;;;;;;;0.75;0.20;;;15.90;1.00;;;;;;5052967;28;20044;-37
2023/01/03 05:00:46;;;;;;;0.70;0.20;;;15.90;1.00;;;;;;5052759;28;20488;-37
2023/01/03 05:03:14;;;;;;;1.27;0.40;;;15.90;1.00;;;;;;5052914;28;20124;-37
2023/01/03 05:05:41;;;;;;;0.80;0.30;;;15.90;1.00;;;;;;5052645;28;20539;-37
2023/01/03 05:08:10;;;;;;;0.82;0.40;;;15.90;1.00;;;;;;5052354;28;20554;-37
2023/01/03 05:10:38;;;;;;;3.00;0.52;;;15.90;1.00;;;;;;5053594;28;20045;-37
2023/01/03 05:13:05;;;;;;;5.15;0.20;;;15.90;1.00;;;;;;5063935;28;20445;-38
2023/01/03 05:15:37;;;;;;;4.10;0.38;;;15.90;1.00;;;;;;5064148;28;20041;-37
2023/01/03 05:18:04;;;;;;;2.47;0.50;;;15.90;1.00;;;;;;5072539;28;20040;-37
2023/01/03 05:26:26;;;;;;;4.35;0.65;;;15.80;1.00;;;;;;5072356;28;20511;-37
2023/01/03 05:28:54;;;;;;;4.25;0.60;;;15.80;1.00;;;;;;5072421;28;20037;-37
2023/01/03 05:31:21;;;;;;;3.05;0.63;;;15.80;1.00;;;;;;5072229;28;20044;-37
2023/01/03 05:33:48;;;;;;;4.07;0.82;;;15.80;1.00;;;;;;5071942;28;20098;-44
2023/01/03 05:36:14;;;;;;;0.77;0.35;;;15.80;1.00;;;;;;5071956;28;20040;-37
2023/01/03 05:38:42;;;;;;;1.85;0.40;;;15.80;1.00;;;;;;5072241;28;20041;-37
2023/01/03 05:41:11;;;;;;;3.15;0.50;;;15.70;1.00;;;;;;5072236;28;20041;-36
2023/01/03 05:43:38;;;;;;;2.13;0.50;;;15.70;1.00;;;;;;5071889;28;20044;-37
2023/01/03 05:46:05;;;;;;;2.25;0.50;;;15.70;1.00;;;;;;5072071;28;20032;-37
2023/01/03 05:48:32;;;;;;;5.05;0.82;;;15.70;1.00;;;;;;5072063;28;20115;-38
2023/01/03 05:50:58;;;;;;;6.75;0.73;;;15.70;1.00;;;;;;5064951;28;20048;-37
2023/01/03 05:53:25;;;;;;;5.60;0.60;;;15.70;1.00;;;;;;5053058;28;20041;-37
2023/01/03 05:55:52;;;;;;;1.70;0.65;;;15.70;1.00;;;;;;5062949;28;20056;-37
2023/01/03 05:58:19;;;;;;;1.80;0.55;;;15.70;1.00;;;;;;5071985;28;20052;-37
2023/01/03 06:00:46;;;;;;;0.50;0.30;;;15.70;1.00;;;;;;5071798;28;20037;-37
2023/01/03 06:03:13;;;;;;;1.77;0.43;;;15.70;1.00;;;;;;5071698;28;20105;-37
2023/01/03 06:05:39;;;;;;;0.75;0.30;;;15.60;1.00;;;;;;5071796;28;20036;-37
2023/01/03 06:08:15;;;;;;;1.95;0.50;;;15.70;1.00;;;;;;5071900;28;20036;-38
2023/01/03 06:10:42;;;;;;;2.25;0.90;;;15.70;1.00;;;;;;5071797;28;20090;-37
2023/01/03 06:13:09;;;;;;;8.63;0.70;;;15.60;1.00;;;;;;5071625;28;20048;-37
2023/01/03 06:15:35;;;;;;;2.42;1.17;;;15.60;1.00;;;;;;5071728;28;20123;-37
2023/01/03 06:18:02;;;;;;;3.70;0.68;;;15.60;1.00;;;;;;5071812;28;20074;-38
2023/01/03 06:20:29;;;;;;;5.22;0.43;;;15.60;1.00;;;;;;5071678;28;20398;-38
2023/01/03 06:22:57;;;;;;;1.63;0.38;;;15.60;1.00;;;;;;5071307;28;20355;-37
2023/01/03 06:25:24;;;;;;;2.20;0.85;;;15.60;1.00;;;;;;5071664;28;20060;-37
2023/01/03 06:27:51;;;;;;;0.98;0.30;;;15.60;1.00;;;;;;5053918;28;20111;-36
2023/01/03 06:30:18;;;;;;;1.23;0.52;;;15.50;1.00;;;;;;5071582;28;20510;-36
2023/01/03 06:32:44;;;;;;;3.53;0.65;;;15.50;1.00;;;;;;5071468;28;20361;-36
2023/01/03 06:35:11;;;;;;;2.40;0.57;;;15.50;1.00;;;;;;5071401;28;20040;-37
2023/01/03 06:37:38;;;;;;;1.90;0.70;;;15.50;1.00;;;;;;5071505;28;20513;-36
2023/01/03 06:40:06;;;;;;;2.35;0.52;;;15.50;1.00;;;;;;5071539;28;20078;-37
2023/01/03 06:42:41;;;;;;;2.38;0.50;;;15.50;1.00;;;;;;5071470;28;20439;-37
2023/01/03 06:53:33;;;;;;;1.85;0.40;;;15.40;1.00;;;;;;5073076;28;20438;-36
2023/01/03 06:56:00;;;;;;;3.90;1.13;;;15.40;1.00;;;;;;5075178;28;20461;-36
2023/01/03 06:58:27;;;;;;;1.92;0.70;;;15.40;1.00;;;;;;5075291;28;20047;-36
2023/01/03 07:00:56;;;;;;;1.17;0.88;;;15.40;1.00;;;;;;5075222;28;20500;-36
2023/01/03 07:03:23;;;;;;;1.40;0.60;;;15.40;1.00;;;;;;5074856;28;20451;-37
2023/01/03 07:05:50;;;;;;;1.17;0.80;;;15.40;1.00;;;;;;5075007;28;20037;-36
2023/01/03 07:08:17;;;;;;;2.03;0.65;;;15.40;1.00;;;;;;5074981;28;20276;-36
2023/01/03 07:10:44;;;;;;;2.38;0.80;;;15.40;1.00;;;;;;5056899;28;20563;-38
2023/01/03 07:15:56;;;;;;;2.53;0.90;;;15.40;1.00;;;;;;5074878;28;20045;-36
2023/01/03 07:18:25;;;;;;;3.50;1.08;;;15.30;1.00;;;;;;5074816;28;20086;-36
2023/01/03 07:20:52;;;;;;;2.10;1.10;;;15.30;1.00;;;;;;5057414;28;20044;-44
2023/01/03 07:23:19;;;;;;;2.70;0.68;;;15.40;1.00;;;;;;5056780;28;20120;-37
2023/01/03 07:25:46;;;;;;;2.70;0.88;;;15.40;1.00;;;;;;5056927;28;20046;-36
2023/01/03 07:28:15;;;;;;;2.45;0.80;;;15.30;1.00;;;;;;5074799;28;20037;-36
2023/01/03 07:30:44;;;;;;;1.10;0.70;;;15.30;1.00;;;;;;5074592;28;20071;-37
2023/01/03 07:33:13;;;;;;;3.25;0.70;;;15.30;1.00;;;;;;5074364;28;20044;-37
2023/01/03 07:35:40;;;;;;;1.73;0.90;;;15.30;1.00;;;;;;5074255;28;20076;-36
2023/01/03 07:38:08;;;;;;;1.50;0.70;;;15.30;1.00;;;;;;5057118;28;20102;-36
2023/01/03 07:40:35;;;;;;;1.73;0.90;;;15.30;1.00;;;;;;5074380;28;20464;-36
2023/01/03 07:45:47;;;;;;;3.78;1.00;;;15.30;1.00;;;;;;5074095;28;20044;-36
2023/01/03 07:48:14;;;;;;;1.73;0.95;;;15.20;1.00;;;;;;5073058;28;20436;-37
2023/01/03 07:50:41;;;;;;;1.73;1.02;;;15.30;1.00;;;;;;5071936;28;20257;-36
2023/01/03 07:53:08;;;;;;;2.75;1.77;;;15.20;1.00;;;;;;5070585;28;20503;-36
2023/01/03 07:55:36;;;;;;;3.25;1.05;;;15.20;1.00;;;;;;5070361;28;20062;-36
2023/01/03 07:58:03;;;;;;;3.38;1.10;;;15.20;1.00;;;;;;5070445;28;20123;-37
2023/01/03 08:00:30;;;;;;;2.35;0.93;;;15.20;1.00;;;;;;5068127;28;20055;-37
2023/01/03 08:02:57;;;;;;;1.90;1.10;;;15.20;1.00;;;;;;5070154;28;20068;-37
2023/01/03 08:05:24;;;;;;;1.23;0.70;;;15.20;1.00;;;;;;5072435;28;20518;-37
2023/01/03 08:07:53;;;;;;;2.45;0.75;;;15.20;1.00;;;;;;5073895;28;20123;-36
2023/01/03 08:13:16;;;;;;;2.20;1.23;;;15.20;1.00;;;;;;5073477;28;20058;-36
2023/01/03 08:15:47;;;;;;;3.72;1.17;;;15.20;1.00;;;;;;5073781;28;20041;-36
2023/01/03 08:18:15;;;;;;;1.92;0.93;;;15.10;1.00;;;;;;5073791;28;20397;-37
2023/01/03 08:20:42;;;;;;;4.05;1.50;;;15.10;1.00;;;;;;5073668;28;20051;-37
2023/01/03 08:23:09;;;;;;;2.67;1.00;;;15.10;1.00;;;;;;5073201;28;20047;-37
2023/01/03 08:25:36;;;;;;;3.28;1.10;;;15.10;1.00;;;;;;5073459;28;20044;-37
2023/01/03 08:28:05;;;;;;;3.00;1.98;;;15.10;1.00;;;;;;5073540;28;20048;-37
2023/01/03 08:30:34;;;;;;;4.47;1.45;;;15.10;1.00;;;;;;5055676;28;20040;-36
2023/01/03 08:33:02;;;;;;;4.28;1.48;;;15.10;1.00;;;;;;5073107;28;20040;-37
2023/01/03 08:35:33;;;;;;;3.75;1.55;;;15.10;1.00;;;;;;5073088;28;20132;-37
2023/01/03 08:38:02;;;;;;;3.10;1.58;;;15.10;1.00;;;;;;5055543;28;20055;-37
2023/01/03 08:40:33;;;;;;;2.58;1.50;;;15.00;1.00;;;;;;5073119;28;20123;-42
2023/01/03 08:43:09;;;;;;;12.65;1.60;;;15.10;1.00;;;;;;5072925;28;20578;-37
2023/01/03 08:45:37;;;;;;;3.58;2.28;;;15.00;1.00;;;;;;5073129;28;20037;-37
2023/01/03 08:48:05;;;;;;;4.05;1.52;;;15.00;1.00;;;;;;5073039;28;20044;-37
2023/01/03 08:50:33;;;;;;;3.03;1.85;;;15.00;1.00;;;;;;5055329;28;20040;-37
2023/01/03 08:53:00;;;;;;;3.60;1.40;;;15.00;1.00;;;;;;5072777;28;20477;-37
2023/01/03 08:55:27;;;;;;;2.17;1.48;;;15.00;1.00;;;;;;5072954;28;20040;-37
2023/01/03 08:57:54;;;;;;;2.20;1.63;;;14.90;1.00;;;;;;5073049;28;20349;-37
2023/01/03 09:00:21;;;;;;;2.20;1.40;;;15.00;1.00;;;;;;5072784;28;20045;-36
2023/01/03 09:02:47;;;;;;;3.13;1.60;;;15.00;1.00;;;;;;5072624;28;20051;-36
2023/01/03 09:05:15;;;;;;;2.65;1.75;;;14.90;1.00;;;;;;5072590;28;20459;-37
2023/01/03 09:07:42;;;;;;;2.85;1.70;;;14.90;1.00;;;;;;5072809;28;20044;-36
2023/01/03 09:10:10;;;;;;;4.25;1.77;;;14.90;1.00;;;;;;5072690;28;20052;-36
2023/01/03 09:12:37;;;;;;;3.13;2.10;;;14.90;1.00;;;;;;5072464;28;20402;-37
2023/01/03 09:15:05;;;;;;;3.42;1.90;;;14.90;1.00;;;;;;5072342;28;20510;-37
2023/01/03 09:17:32;;;;;;;3.45;1.73;;;14.90;1.00;;;;;;5072278;28;20094;-36
2023/01/03 09:19:59;;;;;;;3.85;2.20;;;14.90;1.00;;;;;;5072448;28;20052;-36
2023/01/03 09:22:26;;;;;;;3.08;2.00;;;14.90;1.00;;;;;;5072223;28;20430;-37
2023/01/03 09:24:54;;;;;;;4.13;1.60;;;14.90;1.00;;;;;;5072344;28;20045;-37
2023/01/03 09:27:21;;;;;;;2.00;1.75;;;14.90;1.00;;;;;;5072296;28;20057;-37
2023/01/03 09:29:48;;;;;;;3.13;1.75;;;14.90;1.00;;;;;;5054614;28;20045;-36
2023/01/03 09:32:16;;;;;;;3.38;1.85;;;14.90;1.00;;;;;;5071933;28;20480;-37
2023/01/03 09:34:43;;;;;;;2.70;1.85;;;14.90;1.00;;;;;;5072057;28;20047;-36
2023/01/03 09:37:10;;;;;;;3.17;1.73;;;14.80;1.00;;;;;;5072038;28;20053;-36
2023/01/03 09:39:39;;;;;;;4.47;1.80;;;14.90;1.00;;;;;;5072201;28;20110;-37
2023/01/03 09:44:55;;;;;;;3.15;1.95;;;14.80;1.00;;;;;;5053782;28;20083;-37
2023/01/03 09:47:24;;;;;;;2.80;1.73;;;14.80;1.00;;;;;;5071947;28;20037;-37
2023/01/03 09:49:56;;;;;;;3.97;2.17;;;14.80;1.00;;;;;;5072191;28;20387;-37
2023/01/03 10:05:05;;;;;;;2.95;2.00;;;14.70;1.00;;;;;;5045542;28;20044;-36
2023/01/03 10:07:42;;;;;;;3.42;2.08;;;14.70;1.00;;;;;;5071797;28;20116;-36
2023/01/03 10:10:14;;;;;;;2.40;1.77;;;14.70;1.00;;;;;;5071787;28;20048;-36
2023/01/03 10:13:02;;;;;;;4.63;2.00;;;14.70;1.00;;;;;;5071412;28;20044;-37
2023/01/03 10:15:37;;;;;;;3.15;2.05;;;14.70;1.00;;;;;;5053869;28;20049;-37
2023/01/03 10:18:20;;;;;;;3.95;1.98;;;14.70;1.00;;;;;;5071696;28;20049;-37
2023/01/03 10:20:55;;;;;;;3.38;2.03;;;14.70;1.00;;;;;;5071714;28;20036;-37
2023/01/03 10:23:22;;;;;;;3.63;2.35;;;14.70;1.00;;;;;;5071235;28;20221;-37
2023/01/03 10:25:50;;;;;;;3.75;2.25;;;14.70;1.00;;;;;;5071616;28;20041;-36
2023/01/03 10:28:30;;;;;;;3.95;2.10;;;14.70;1.00;;;;;;5038870;28;20419;-37
2023/01/03 10:31:38;;;;;;;4.20;2.05;;;14.70;1.00;;;;;;5057940;28;20044;-37
2023/01/03 10:34:06;;;;;;;3.92;2.05;;;14.70;1.00;;;;;;4993644;28;20509;-37
2023/01/03 10:36:33;;;;;;;5.00;1.92;;;14.60;1.00;;;;;;4993831;28;20050;-37
2023/01/03 10:39:08;;;;;;;3.85;1.98;;;14.70;1.00;;;;;;5033577;28;20056;-37
2023/01/03 10:41:46;;;;;;;3.90;2.08;;;14.70;1.00;;;;;;5075498;28;20037;-37
2023/01/03 10:44:28;;;;;;;3.58;2.00;;;14.70;1.00;;;;;;5075085;28;20119;-38
2023/01/03 10:46:58;;;;;;;3.15;1.77;;;14.70;1.00;;;;;;5075413;28;20127;-37
2023/01/03 10:49:30;;;;;;;2.60;1.90;;;14.60;1.00;;;;;;5075298;28;20052;-37
2023/01/03 10:52:01;;;;;;;2.53;1.63;;;14.60;1.00;;;;;;5075225;28;20550;-37
2023/01/03 10:54:50;;;;;;;3.72;2.22;;;14.60;1.00;;;;;;5075308;28;20068;-37
2023/01/03 10:57:36;;;;;;;3.20;1.60;;;14.60;1.00;;;;;;5075008;28;20044;-37
2023/01/03 11:00:25;;;;;;;4.00;1.92;;;14.60;1.00;;;;;;5074879;28;20059;-36
2023/01/03 11:02:54;;;;;;;4.20;2.38;;;14.60;1.00;;;;;;5074762;28;20050;-38
2023/01/03 11:05:26;;;;;;;3.25;2.30;;;14.60;1.00;;;;;;5074870;28;20037;-36
2023/01/03 11:07:55;;;;;;;2.83;2.03;;;14.60;1.00;;;;;;5075244;28;20041;-36
2023/01/03 11:10:24;;;;;;;3.03;2.35;;;14.60;1.00;;;;;;5074807;28;20051;-37
2023/01/03 11:12:51;;;;;;;2.38;1.67;;;14.60;1.00;;;;;;5074538;28;20128;-36
2023/01/03 11:15:24;;;;;;;4.32;2.10;;;14.60;1.00;;;;;;5074723;28;20492;-36
2023/01/03 11:18:02;;;;;;;4.20;2.38;;;14.60;1.00;;;;;;5074839;28;20545;-36
2023/01/03 11:20:37;;;;;;;4.07;2.50;;;14.50;1.00;;;;;;5074778;28;20403;-37
2023/01/03 11:23:38;;;;;;;3.92;2.25;;;14.60;1.00;;;;;;5056543;28;20041;-36
2023/01/03 11:26:26;;;;;;;3.88;2.20;;;14.50;1.00;;;;;;5074617;28;20041;-36
2023/01/03 11:29:00;;;;;;;4.95;2.20;;;14.50;1.00;;;;;;5074449;28;20036;-37
2023/01/03 11:31:46;;;;;;;;;;;14.50;1.00;;;;;;5075058;28;20048;-37
2023/01/03 11:34:34;;;;;;;5.57;2.45;;;14.50;1.00;;;;;;5074245;28;19966;-36
2023/01/03 11:37:34;;;;;;;3.15;2.58;;;14.50;1.00;;;;;;5074291;28;20418;-36
2023/01/03 11:40:23;;;;;;;3.30;2.08;;;14.50;1.00;;;;;;5074168;28;20052;-37
2023/01/03 11:43:15;;;;;;;3.67;2.50;;;14.50;1.00;;;;;;5074022;28;20048;-37
2023/01/03 11:46:11;;;;;;;4.45;2.95;;;14.50;1.00;;;;;;5074208;28;20040;-37
2023/01/03 11:48:46;;;;;;;4.53;2.42;;;14.50;1.00;;;;;;5074348;28;20040;-37
2023/01/03 11:51:15;;;;;;;6.05;2.60;;;14.50;1.00;;;;;;5074221;28;20040;-37
2023/01/03 11:54:01;;;;;;;5.75;2.58;;;14.50;1.00;;;;;;5073873;28;20127;-36
2023/01/03 11:56:37;;;;;;;4.70;2.60;;;14.50;1.00;;;;;;5056143;28;20052;-37
2023/01/03 11:59:26;;;;;;;3.05;1.90;;;14.50;1.00;;;;;;5056857;28;20449;-37
2023/01/03 12:02:25;;;;;;;3.65;2.33;;;14.50;1.00;;;;;;5073991;28;20055;-36
2023/01/03 12:05:05;;;;;;;4.63;2.30;;;14.50;1.00;;;;;;5056125;28;20036;-37
2023/01/03 12:07:45;;;;;;;7.18;2.80;;;14.50;1.00;;;;;;5073914;28;20043;-37
2023/01/03 12:10:40;;;;;;;5.55;2.05;;;14.50;1.00;;;;;;5073676;28;20102;-37
2023/01/03 12:13:25;;;;;;;3.53;2.25;;;14.50;1.00;;;;;;5073530;28;20041;-38
2023/01/03 12:16:22;;;;;;;4.38;2.03;;;14.40;1.00;;;;;;5073640;28;20040;-37
2023/01/03 12:19:16;;;;;;;3.92;2.05;;;14.40;1.00;;;;;;5073719;28;20139;-37
2023/01/03 12:21:51;;;;;;;6.18;2.13;;;14.40;1.00;;;;;;5073765;28;20185;-37
2023/01/03 12:24:23;;;;;;;5.95;2.63;;;14.40;1.00;;;;;;5073362;28;20041;-37
2023/01/03 12:26:59;;;;;;;3.13;2.03;;;14.40;1.00;;;;;;5073914;28;20051;-38
2023/01/03 12:29:38;;;;;;;3.35;2.08;;;14.40;1.00;;;;;;5073607;28;20041;-38
2023/01/03 12:32:10;;;;;;;3.53;2.42;;;14.40;1.00;;;;;;5073422;28;20517;-38
2023/01/03 12:35:03;;;;;;;3.63;1.98;;;14.40;1.00;;;;;;5055378;28;20048;-38
2023/01/03 12:37:32;;;;;;;4.15;1.90;;;14.40;1.00;;;;;;5073300;28;20407;-37
2023/01/03 12:40:20;;;;;;;5.32;2.70;;;14.40;1.00;;;;;;5055350;28;20462;-36
2023/01/03 12:43:23;;;;;;;3.63;1.70;;;14.40;1.00;;;;;;5072781;28;20039;-37
2023/01/03 12:46:19;;;;;;;3.80;1.83;;;14.40;1.00;;;;;;5055428;28;20048;-37
2023/01/03 12:49:36;;;;;;;4.13;2.55;;;14.40;1.00;;;;;;5073204;28;20404;-36
2023/01/03 12:52:03;;;;;;;7.07;3.78;;;14.30;1.00;;;;;;4990787;28;20046;-36
2023/01/03 12:54:32;;;;;;;4.63;2.53;;;14.40;1.00;;;;;;5064694;28;20045;-36
2023/01/03 12:57:21;;;;;;;3.28;2.00;;;14.30;1.00;;;;;;5072885;28;20072;-37
2023/01/03 12:59:51;;;;;;;4.47;2.15;;;14.30;1.00;;;;;;5073015;28;20576;-36
2023/01/03 13:02:39;;;;;;;4.53;2.60;;;14.30;1.00;;;;;;5072614;28;20048;-36
2023/01/03 13:05:25;;;;;;;6.10;2.35;;;14.30;1.00;;;;;;5072669;28;20045;-37
2023/01/03 13:08:03;;;;;;;4.95;2.30;;;14.30;1.00;;;;;;5054721;28;20496;-37
2023/01/03 13:14:11;;;;;;;4.18;2.38;;;14.30;1.00;;;;;;5010391;28;20366;-37
2023/01/03 13:17:17;;;;;;;5.97;3.38;;;14.30;1.00;;;;;;5042464;28;20041;-37
2023/01/03 13:19:50;;;;;;;3.67;1.88;;;14.30;1.00;;;;;;5072541;28;20032;-36
2023/01/03 13:22:48;;;;;;;3.35;2.00;;;14.30;1.00;;;;;;5072510;28;20106;-37
2023/01/03 13:25:30;;;;;;;3.47;2.28;;;14.30;1.00;;;;;;5072359;28;20102;-37
2023/01/03 13:27:59;;;;;;;4.05;2.15;;;14.30;1.00;;;;;;5072141;28;20066;-37
2023/01/03 13:30:32;;;;;;;4.57;2.03;;;14.30;1.00;;;;;;5072219;28;20492;-37
2023/01/03 13:33:15;;;;;;;8.05;2.28;;;14.30;1.00;;;;;;5054134;28;20054;-37
2023/01/03 13:35:45;;;;;;;4.72;2.30;;;14.20;1.00;;;;;;5054336;28;20044;-37
2023/01/03 13:38:34;;;;;;;3.22;2.20;;;14.30;1.00;;;;;;5072115;28;20064;-37
2023/01/03 13:41:04;;;;;;;4.45;2.13;;;14.30;1.00;;;;;;5072030;28;20048;-38
2023/01/03 13:43:50;;;;;;;3.72;2.33;;;14.30;1.00;;;;;;5056422;28;20049;-37
2023/01/03 13:46:27;;;;;;;8.32;2.30;;;14.30;1.00;;;;;;5072005;28;20127;-37
2023/01/03 13:48:58;;;;;;;4.82;2.13;;;14.30;1.00;;;;;;5072027;28;20040;-37
2023/01/03 13:51:32;;;;;;;3.65;2.08;;;14.30;1.00;;;;;;5072213;28;20377;-37
2023/01/03 13:54:04;;;;;;;5.82;3.00;;;14.30;1.00;;;;;;5071613;28;20056;-37
2023/01/03 13:57:01;;;;;;;5.15;1.77;;;14.30;1.00;;;;;;5071884;28;20049;-37
2023/01/03 13:59:40;;;;;;;6.35;2.15;;;14.30;1.00;;;;;;5071925;28;20045;-37
2023/01/03 14:03:04;;;;;;;4.55;2.22;;;14.20;1.00;;;;;;5071879;28;20044;-37
2023/01/03 14:06:08;;;;;;;2.20;1.67;;;14.30;1.00;;;;;;5041622;28;20496;-38
2023/01/03 14:09:11;;;;;;;2.30;1.75;;;14.20;1.00;;;;;;5053724;28;20055;-36
2023/01/03 14:12:07;;;;;;;5.35;1.90;;;14.20;1.00;;;;;;5053688;28;20044;-37
2023/01/03 14:14:54;;;;;;;3.55;1.80;;;14.20;1.00;;;;;;5071735;28;20044;-37
2023/01/03 14:17:31;;;;;;;3.65;2.38;;;14.20;1.00;;;;;;5071676;28;20044;-36
2023/01/03 14:20:06;;;;;;;4.07;1.98;;;14.20;1.00;;;;;;5053615;28;20523;-37
2023/01/03 14:22:47;;;;;;;4.07;1.73;;;14.20;1.00;;;;;;5071588;28;20044;-37
2023/01/03 14:25:34;;;;;;;5.93;2.00;;;14.20;1.00;;;;;;5071547;28;20071;-37
2023/01/03 14:28:05;;;;;;;4.68;2.13;;;14.20;1.00;;;;;;5071680;28;20032;-37
2023/01/03 14:30:33;;;;;;;5.95;2.13;;;14.20;1.00;;;;;;5071482;28;20044;-36
2023/01/03 14:33:00;;;;;;;4.47;2.00;;;14.20;1.00;;;;;;5071342;28;20041;-37
2023/01/03 14:35:31;;;;;;;4.65;1.80;;;14.20;1.00;;;;;;5053339;28;20076;-36
2023/01/03 14:37:58;;;;;;;3.92;1.98;;;14.20;1.00;;;;;;5053598;28;20037;-36